Terminal Aerodrome Forecast
Issued by NWS

Home | Current Version | Previous Version | Text Only | Print | Product List | Glossary On
Versions: 1 2 3 4 5 6 7 8 9 10 11 12 13 14 15
000
FTPA31 PHFO 201138
TAFHNY
TAF
PHNY 201138Z 2012/2112 05009KT P6SM FEW025 SCT060
     FM202000 04014G22KT P6SM FEW025 SCT060
     FM202200 04020G30KT P6SM FEW030 SCT060
     FM210700 05013KT P6SM FEW025 SCT050=

USA.gov is the U.S. government's official web portal to all federal, state and local government web resources and services.